Home   Weather   USA   Sandpoint   Past weeks
Flag for USA

Past Weather in Sandpoint, Idaho, USA — Yesterday and Last 2 Weeks

Currently: 90 °F. Sunny. (Weather station: Sandpoint Airport, USA). See more current weather

Past Weather in Sandpoint — Graph

°F

Sandpoint Temperature Yesterday

Maximum temperature yesterday: 90 °F (at 3:55 pm)
Minimum temperature yesterday: 54 °F (at 5:15 am)
Average temperature yesterday: 75 °F

High & Low Weather Summary for the Past Weeks

 TemperatureHumidityPressure
High99 °F (Jul 10, 3:35 pm)100% (Jun 27, 11:15 pm)30.27 "Hg (Jun 27, 11:15 pm)
Low45 °F (Jun 28, 1:55 am)10% (Jul 10, 4:15 pm)29.86 "Hg (Jul 10, 6:15 pm)
Average67 °F59%30.02 "Hg
* Reported Jun 27 5:15 pm — Jul 12 5:15 pm, Sandpoint. Weather by CustomWeather, © 2024

Note: Actual official high and low records may vary slightly from our data, if they occured in-between our weather recording intervals... More about our weather records

Sandpoint Weather History for the Previous 24 Hours

Scroll right to see more
 ConditionsComfort  
Time TempWeatherWind HumidityBarometerVisibility
5:15 pm
Fri, Jul 12
90 °FSunny.8 mph16%29.94 "Hg10 mi
4:55 pm90 °FSunny.8 mph16%29.94 "Hg10 mi
4:35 pm91 °FSunny.9 mph17%29.95 "Hg10 mi
4:15 pm91 °FSunny.7 mph17%29.96 "Hg10 mi
3:55 pm90 °FSunny.8 mph20%29.96 "Hg10 mi
3:15 pm90 °FSunny.9 mph20%29.97 "Hg10 mi
2:55 pm90 °FSunny.9 mph20%29.98 "Hg10 mi
2:35 pm90 °FSunny.10 mph20%29.99 "Hg10 mi
2:15 pm88 °FSunny.10 mph24%29.99 "Hg10 mi
1:55 pm88 °FSunny.7 mph22%30.00 "Hg10 mi
1:15 pm86 °FSunny.9 mph29%30.00 "Hg10 mi
12:55 pm86 °FSunny.8 mph27%30.01 "Hg10 mi
12:15 pm82 °FSunny.6 mph28%30.03 "Hg10 mi
11:55 am82 °FSunny.7 mph28%30.03 "Hg10 mi
11:15 am79 °FSunny.6 mph34%30.04 "Hg10 mi
10:55 am79 °FSunny.7 mph32%30.04 "Hg10 mi
10:15 am77 °FSunny.6 mph32%30.05 "Hg10 mi
9:55 am77 °FSunny.3 mph32%30.05 "Hg10 mi
9:15 am73 °FSunny.No wind36%30.06 "Hg10 mi
8:55 am72 °FSunny.No wind41%30.06 "Hg10 mi
8:30 am70 °FSunny.No wind43%30.06 "Hg10 mi
8:15 am70 °FSunny.No wind43%30.05 "Hg10 mi
7:55 am66 °FSunny.No wind49%30.05 "Hg10 mi
6:50 am59 °FSunny.No wind68%30.04 "Hg10 mi
6:15 am55 °FSunny.No wind72%30.02 "Hg10 mi
5:55 am54 °FSunny.No wind77%30.02 "Hg10 mi
5:15 am52 °FSunny.No wind82%30.01 "Hg10 mi
4:50 am52 °FClear.No wind77%30.00 "Hg10 mi
4:15 am52 °FClear.No wind82%29.99 "Hg10 mi
3:55 am54 °FClear.No wind77%29.99 "Hg10 mi
3:15 am54 °FClear.No wind77%29.98 "Hg10 mi
2:55 am54 °FClear.No wind77%29.97 "Hg10 mi
2:35 am55 °FClear.No wind72%29.97 "Hg10 mi
2:15 am55 °FClear.No wind72%29.97 "Hg10 mi
1:55 am55 °FClear.No wind77%29.97 "Hg10 mi
1:15 am57 °FClear.No wind72%29.97 "Hg10 mi
12:15 am59 °FClear.No wind72%29.96 "Hg10 mi
11:35 pm
Thu, Jul 11
61 °FClear.No wind68%29.96 "Hg10 mi
11:15 pm61 °FClear.No wind68%29.96 "Hg10 mi
10:50 pm63 °FClear.No wind64%29.95 "Hg10 mi
10:20 pm64 °FClear.No wind60%29.95 "Hg10 mi
9:55 pm64 °FClear.No wind60%29.94 "Hg10 mi
9:35 pm66 °FClear.No wind60%29.94 "Hg10 mi
9:15 pm68 °FClear.3 mph56%29.94 "Hg10 mi
8:55 pm68 °FClear.No wind56%29.94 "Hg10 mi
8:35 pm72 °FSunny.No wind50%29.94 "Hg10 mi
8:15 pm73 °FSunny.No wind47%29.94 "Hg10 mi
7:55 pm75 °FSunny.3 mph41%29.94 "Hg10 mi
7:15 pm86 °FSunny.No wind27%29.94 "Hg10 mi
6:35 pm90 °FSunny.3 mph17%29.94 "Hg10 mi
6:15 pm90 °FSunny.No wind18%29.94 "Hg10 mi
Weather by CustomWeather, © 2024

See weather overview